createdAt,value
2022-12-27T00:00:27.408Z,102314.63
2022-12-27T00:03:15.414Z,102307.34
2022-12-27T00:06:07.985Z,102309.34
2022-12-27T00:08:57.611Z,102308.94
2022-12-27T00:11:45.616Z,102311.97
2022-12-27T00:14:34.909Z,102310.34
2022-12-27T00:17:22.850Z,102308.13
2022-12-27T00:20:12.047Z,102301.72
2022-12-27T00:23:01.296Z,102302.63
2022-12-27T00:25:49.202Z,102300.88
2022-12-27T00:28:37.271Z,102301.50
2022-12-27T00:31:29.260Z,102316.97
2022-12-27T00:34:17.233Z,102305.69
2022-12-27T00:37:05.161Z,102306.66
2022-12-27T00:39:53.133Z,102303.97
2022-12-27T00:42:41.143Z,102304.63
2022-12-27T00:45:29.205Z,102314.16
2022-12-27T00:48:18.508Z,102321.63
2022-12-27T00:51:08.753Z,102331.44
2022-12-27T00:53:57.081Z,102344.91
2022-12-27T00:56:44.994Z,102339.25
2022-12-27T00:59:33.108Z,102347.75
2022-12-27T01:02:21.054Z,102341.00
2022-12-27T01:05:10.633Z,102355.00
2022-12-27T01:07:58.610Z,102367.44
2022-12-27T01:10:46.580Z,102371.03
2022-12-27T01:13:35.544Z,102372.25
2022-12-27T01:16:25.673Z,102368.34
2022-12-27T01:19:14.837Z,102377.88
2022-12-27T01:22:04.225Z,102383.97
2022-12-27T01:24:52.498Z,102401.28
2022-12-27T01:27:40.431Z,102390.41
2022-12-27T01:30:28.366Z,102388.47
2022-12-27T01:33:16.346Z,102385.63
2022-12-27T01:36:12.609Z,102394.72
2022-12-27T01:39:02.659Z,102397.16
2022-12-27T01:42:08.312Z,102401.44
2022-12-27T01:44:57.951Z,102390.41
2022-12-27T01:47:55.782Z,102406.41
2022-12-27T01:50:48.339Z,102400.94
2022-12-27T01:53:40.463Z,102402.50
2022-12-27T01:56:32.745Z,102407.31
2022-12-27T01:59:20.849Z,102406.13
2022-12-27T02:02:09.684Z,102404.72
2022-12-27T02:04:57.854Z,102407.72
2022-12-27T02:08:05.872Z,102417.75
2022-12-27T02:10:54.751Z,102418.25
2022-12-27T02:13:46.554Z,102414.44
2022-12-27T02:16:34.600Z,102415.91
2022-12-27T02:19:30.890Z,102415.91
2022-12-27T02:23:11.233Z,102419.34
2022-12-27T02:26:16.238Z,102420.41
2022-12-27T02:29:20.060Z,102424.84
2022-12-27T02:32:12.891Z,102431.09
2022-12-27T02:35:09.931Z,102434.16
2022-12-27T02:38:00.970Z,102430.56
2022-12-27T02:41:08.981Z,102434.34
2022-12-27T02:44:15.919Z,102443.19
2022-12-27T02:47:23.841Z,102445.66
2022-12-27T02:50:33.018Z,102435.25
2022-12-27T02:53:35.211Z,102440.94
2022-12-27T02:56:50.752Z,102444.44
2022-12-27T03:00:20.649Z,102443.41
2022-12-27T03:03:41.049Z,102440.41
2022-12-27T03:06:48.097Z,102446.06
2022-12-27T03:10:02.068Z,102449.06
2022-12-27T03:13:18.005Z,102444.53
2022-12-27T03:16:23.243Z,102451.41
2022-12-27T03:19:38.413Z,102449.53
2022-12-27T03:22:46.789Z,102455.13
2022-12-27T03:25:37.141Z,102461.88
2022-12-27T03:28:47.301Z,102447.69
2022-12-27T03:31:57.081Z,102456.84
2022-12-27T03:34:52.008Z,102457.16
2022-12-27T03:38:01.941Z,102447.47
2022-12-27T03:41:11.459Z,102459.97
2022-12-27T03:43:59.533Z,102460.94
2022-12-27T03:46:49.136Z,102465.84
2022-12-27T03:49:44.391Z,102461.28
2022-12-27T03:52:39.008Z,102472.66
2022-12-27T03:55:33.019Z,102476.41
2022-12-27T03:58:22.120Z,102471.84
2022-12-27T04:01:10.251Z,102473.16
2022-12-27T04:03:58.419Z,102467.63
2022-12-27T04:06:46.779Z,102478.84
2022-12-27T04:09:53.696Z,102475.59
2022-12-27T04:12:58.983Z,102481.50
2022-12-27T04:16:04.367Z,102478.94
2022-12-27T04:19:10.172Z,102491.81
2022-12-27T04:22:15.677Z,102480.84
2022-12-27T04:25:23.034Z,102479.84
2022-12-27T04:28:28.506Z,102481.50
2022-12-27T04:31:34.183Z,102487.38
2022-12-27T04:34:39.884Z,102478.44
2022-12-27T04:37:27.854Z,102484.94
2022-12-27T04:40:31.192Z,102488.78
2022-12-27T04:43:36.698Z,102490.13
2022-12-27T04:46:44.538Z,102495.31
2022-12-27T04:49:50.737Z,102496.38
2022-12-27T04:52:56.143Z,102492.75
2022-12-27T04:55:45.461Z,102495.97
2022-12-27T04:58:33.945Z,102497.16
2022-12-27T05:01:39.639Z,102491.59
2022-12-27T05:04:27.891Z,102498.91
2022-12-27T05:07:34.127Z,102509.25
2022-12-27T05:10:40.267Z,102506.69
2022-12-27T05:13:47.344Z,102508.59
2022-12-27T05:16:37.517Z,102503.47
2022-12-27T05:19:25.393Z,102509.41
2022-12-27T05:22:30.623Z,102514.03
2022-12-27T05:25:38.040Z,102507.53
2022-12-27T05:28:26.045Z,102515.63
2022-12-27T05:31:15.591Z,102516.44
2022-12-27T05:34:03.616Z,102510.47
2022-12-27T05:36:51.522Z,102518.91
2022-12-27T05:39:39.522Z,102517.28
2022-12-27T05:42:27.565Z,102523.94
2022-12-27T05:45:15.570Z,102531.25
2022-12-27T05:48:05.470Z,102538.72
2022-12-27T05:50:53.373Z,102537.06
2022-12-27T05:53:41.882Z,102543.34
2022-12-27T05:56:29.845Z,102537.09
2022-12-27T05:59:17.880Z,102542.50
2022-12-27T06:02:05.991Z,102541.44
2022-12-27T06:04:55.448Z,102538.56
2022-12-27T06:07:43.425Z,102529.78
2022-12-27T06:10:31.353Z,102543.06
2022-12-27T06:13:19.264Z,102544.56
2022-12-27T06:16:09.411Z,102556.47
2022-12-27T06:18:57.442Z,102557.13
2022-12-27T06:21:46.785Z,102567.84
2022-12-27T06:24:34.711Z,102563.78
2022-12-27T06:27:22.691Z,102562.28
2022-12-27T06:30:12.247Z,102561.75
2022-12-27T06:33:00.254Z,102570.69
2022-12-27T06:35:48.256Z,102548.47
2022-12-27T06:38:38.203Z,102570.69
2022-12-27T06:41:26.853Z,102568.34
2022-12-27T06:44:15.091Z,102578.25
2022-12-27T06:47:03.597Z,102582.59
2022-12-27T06:49:51.529Z,102577.97
2022-12-27T06:52:39.494Z,102587.72
2022-12-27T06:55:28.729Z,102585.38
2022-12-27T06:58:17.429Z,102587.84
2022-12-27T07:01:08.656Z,102581.31
2022-12-27T07:03:58.272Z,102587.66
2022-12-27T07:06:46.282Z,102586.56
2022-12-27T07:09:34.249Z,102588.41
2022-12-27T07:12:23.574Z,102585.84
2022-12-27T07:15:11.783Z,102593.88
2022-12-27T07:18:00.760Z,102599.31
2022-12-27T07:20:48.701Z,102600.69
2022-12-27T07:23:37.262Z,102608.81
2022-12-27T07:26:28.459Z,102604.75
2022-12-27T07:29:17.998Z,102607.44
2022-12-27T07:32:06.491Z,102616.69
2022-12-27T07:34:54.503Z,102617.97
2022-12-27T07:37:42.515Z,102622.09
2022-12-27T07:40:30.467Z,102625.50
2022-12-27T07:43:18.422Z,102625.41
2022-12-27T07:46:10.238Z,102623.63
2022-12-27T07:48:59.018Z,102620.00
2022-12-27T07:51:47.048Z,102619.69
2022-12-27T07:54:35.205Z,102613.88
2022-12-27T07:57:23.161Z,102611.16
2022-12-27T08:00:12.538Z,102614.91
2022-12-27T08:03:01.854Z,102621.41
2022-12-27T08:05:52.982Z,102635.06
2022-12-27T08:08:44.817Z,102632.19
2022-12-27T08:11:32.800Z,102636.88
2022-12-27T08:14:20.759Z,102637.69
2022-12-27T08:17:16.153Z,102634.56
2022-12-27T08:20:06.497Z,102638.34
2022-12-27T08:22:54.483Z,102637.69
2022-12-27T08:25:48.472Z,102636.63
2022-12-27T08:28:37.422Z,102645.03
2022-12-27T08:31:25.452Z,102636.94
2022-12-27T08:34:13.427Z,102633.03
2022-12-27T08:37:02.708Z,102638.84
2022-12-27T08:39:50.690Z,102639.41
2022-12-27T08:42:38.697Z,102648.97
2022-12-27T08:45:26.852Z,102646.41
2022-12-27T08:48:15.027Z,102640.47
2022-12-27T08:51:11.911Z,102643.44
2022-12-27T08:54:05.190Z,102646.69
2022-12-27T08:56:53.110Z,102647.06
2022-12-27T08:59:41.057Z,102649.09
2022-12-27T09:02:29.197Z,102646.38
2022-12-27T09:05:17.526Z,102653.84
2022-12-27T09:08:05.840Z,102665.50
2022-12-27T09:10:55.142Z,102666.22
2022-12-27T09:13:43.740Z,102665.56
2022-12-27T09:16:34.067Z,102671.94
2022-12-27T09:19:22.121Z,102673.19
2022-12-27T09:22:10.076Z,102677.16
2022-12-27T09:24:58.182Z,102671.34
2022-12-27T09:27:47.490Z,102666.34
2022-12-27T09:30:35.493Z,102662.97
2022-12-27T09:33:23.473Z,102653.06
2022-12-27T09:36:12.995Z,102660.78
2022-12-27T09:39:01.312Z,102657.00
2022-12-27T09:45:15.480Z,102653.22
2022-12-27T09:48:07.314Z,102659.03
2022-12-27T09:50:59.007Z,102661.59
2022-12-27T09:53:54.400Z,102663.53
2022-12-27T09:57:17.700Z,102674.75
2022-12-27T09:59:54.406Z,102674.75
2022-12-27T10:02:45.370Z,102680.72
2022-12-27T10:05:37.544Z,102678.16
2022-12-27T10:08:38.233Z,102678.41
2022-12-27T10:11:48.193Z,102675.59
2022-12-27T10:14:53.926Z,102667.28
2022-12-27T10:17:56.086Z,102657.97
2022-12-27T10:20:54.617Z,102657.66
2022-12-27T10:23:50.422Z,102660.13
2022-12-27T10:26:39.594Z,102660.53
2022-12-27T10:29:28.284Z,102677.31
2022-12-27T10:32:17.347Z,102666.72
2022-12-27T10:35:07.538Z,102665.63
2022-12-27T10:37:56.564Z,102674.72
2022-12-27T10:40:53.582Z,102667.81
2022-12-27T10:43:43.514Z,102657.75
2022-12-27T10:46:33.899Z,102649.88
2022-12-27T10:49:25.992Z,102643.75
2022-12-27T10:52:20.921Z,102641.19
2022-12-27T10:55:33.531Z,102651.75
2022-12-27T10:58:36.866Z,102661.66
2022-12-27T11:01:27.139Z,102657.84
2022-12-27T11:04:21.143Z,102655.00
2022-12-27T11:07:15.051Z,102651.84
2022-12-27T11:10:15.632Z,102653.06
2022-12-27T11:13:05.474Z,102652.22
2022-12-27T11:15:58.948Z,102655.84
2022-12-27T11:18:50.898Z,102652.16
2022-12-27T11:21:40.855Z,102651.41
2022-12-27T11:24:29.154Z,102649.31
2022-12-27T11:27:25.159Z,102651.22
2022-12-27T11:30:23.791Z,102648.03
2022-12-27T11:33:24.588Z,102652.88
2022-12-27T11:36:15.174Z,102645.22
2022-12-27T11:39:03.380Z,102639.34
2022-12-27T11:41:55.841Z,102635.53
2022-12-27T11:44:48.632Z,102637.59
2022-12-27T11:47:42.546Z,102632.88
2022-12-27T11:50:43.965Z,102635.72
2022-12-27T11:54:02.673Z,102641.72
2022-12-27T11:56:56.245Z,102635.00
2022-12-27T11:59:55.467Z,102637.94
2022-12-27T12:03:00.519Z,102632.69
2022-12-27T12:06:06.816Z,102621.63
2022-12-27T12:09:19.410Z,102609.47
2022-12-27T12:12:32.971Z,102607.38
2022-12-27T12:15:49.899Z,102599.13
2022-12-27T12:18:52.677Z,102583.72
2022-12-27T12:21:48.995Z,102570.75
2022-12-27T12:25:08.043Z,102561.31
2022-12-27T12:28:47.207Z,102561.69
2022-12-27T12:31:55.237Z,102563.16
2022-12-27T12:34:56.970Z,102562.00
2022-12-27T12:38:02.628Z,102548.50
2022-12-27T12:41:17.715Z,102543.38
2022-12-27T12:44:41.128Z,102540.53
2022-12-27T12:48:11.917Z,102532.41
2022-12-27T12:51:21.459Z,102533.84
2022-12-27T12:54:23.194Z,102536.44
2022-12-27T12:57:24.715Z,102525.44
2022-12-27T13:00:27.706Z,102522.06
2022-12-27T13:03:58.086Z,102516.22
2022-12-27T13:07:04.446Z,102513.16
2022-12-27T13:10:09.168Z,102505.09
2022-12-27T13:13:04.261Z,102505.25
2022-12-27T13:16:13.581Z,102507.38
2022-12-27T13:19:15.931Z,102496.22
2022-12-27T13:22:14.883Z,102489.13
2022-12-27T13:25:16.433Z,102483.28
2022-12-27T13:28:17.068Z,102478.78
2022-12-27T13:31:13.451Z,102478.41
2022-12-27T13:34:14.642Z,102469.03
2022-12-27T13:37:15.191Z,102453.41
2022-12-27T13:40:29.402Z,102458.84
2022-12-27T13:43:53.939Z,102446.94
2022-12-27T13:47:10.235Z,102444.47
2022-12-27T13:50:28.549Z,102453.88
2022-12-27T13:53:55.064Z,102447.53
2022-12-27T13:56:54.885Z,102445.28
2022-12-27T14:00:03.579Z,102445.00
2022-12-27T14:03:30.776Z,102444.16
2022-12-27T14:06:38.093Z,102442.56
2022-12-27T14:09:49.435Z,102444.16
2022-12-27T14:12:57.053Z,102433.69
2022-12-27T14:16:11.765Z,102422.72
2022-12-27T14:19:14.802Z,102425.81
2022-12-27T14:22:30.411Z,102422.81
2022-12-27T14:26:01.595Z,102420.91
2022-12-27T14:29:28.409Z,102405.56
2022-12-27T14:32:54.827Z,102406.19
2022-12-27T14:36:14.221Z,102412.44
2022-12-27T14:39:50.057Z,102406.31
2022-12-27T14:43:07.979Z,102405.00
2022-12-27T14:46:32.138Z,102413.97
2022-12-27T14:49:50.257Z,102401.53
2022-12-27T14:53:02.747Z,102411.31
2022-12-27T14:56:03.509Z,102409.06
2022-12-27T14:59:04.023Z,102407.81
2022-12-27T15:02:03.686Z,102417.63
2022-12-27T15:05:05.137Z,102412.25
2022-12-27T15:08:24.600Z,102403.59
2022-12-27T15:11:30.998Z,102405.00
2022-12-27T15:14:36.850Z,102407.44
2022-12-27T15:17:40.194Z,102408.75
2022-12-27T15:20:53.453Z,102417.25
2022-12-27T15:23:50.921Z,102413.88
2022-12-27T15:26:50.733Z,102405.84
2022-12-27T15:29:52.320Z,102408.41
2022-12-27T15:32:53.377Z,102409.88
2022-12-27T15:35:53.186Z,102405.53
2022-12-27T15:38:53.525Z,102396.50
2022-12-27T15:41:59.865Z,102395.38
2022-12-27T15:44:59.765Z,102386.66
2022-12-27T15:48:07.191Z,102396.69
2022-12-27T15:51:01.791Z,102386.38
2022-12-27T15:54:19.594Z,102387.69
2022-12-27T15:57:24.435Z,102393.50
2022-12-27T16:00:29.857Z,102387.53
2022-12-27T16:03:35.310Z,102398.38
2022-12-27T16:06:49.904Z,102401.75
2022-12-27T16:09:38.746Z,102382.59
2022-12-27T16:12:38.329Z,102382.06
2022-12-27T16:15:52.142Z,102379.94
2022-12-27T16:18:59.218Z,102384.81
2022-12-27T16:21:48.260Z,102374.97
2022-12-27T16:24:36.401Z,102373.22
2022-12-27T16:27:33.540Z,102355.97
2022-12-27T16:30:39.545Z,102349.34
2022-12-27T16:33:37.646Z,102349.50
2022-12-27T16:36:31.092Z,102342.25
2022-12-27T16:39:30.523Z,102340.03
2022-12-27T16:42:28.035Z,102332.31
2022-12-27T16:45:32.839Z,102323.44
2022-12-27T16:48:29.987Z,102322.97
2022-12-27T16:51:32.984Z,102324.94
2022-12-27T16:54:32.416Z,102318.97
2022-12-27T16:57:34.535Z,102301.53
2022-12-27T17:00:38.901Z,102308.91
2022-12-27T17:03:45.567Z,102318.56
2022-12-27T17:06:59.453Z,102308.75
2022-12-27T17:09:47.424Z,102308.16
2022-12-27T17:12:35.566Z,102305.91
2022-12-27T17:15:24.109Z,102303.19
2022-12-27T17:18:25.337Z,102299.28
2022-12-27T17:21:18.206Z,102303.31
2022-12-27T17:24:10.027Z,102285.41
2022-12-27T17:27:14.596Z,102278.63
2022-12-27T17:30:13.469Z,102276.31
2022-12-27T17:33:21.996Z,102275.63
2022-12-27T17:36:24.010Z,102260.44
2022-12-27T17:39:25.025Z,102273.00
2022-12-27T17:42:37.994Z,102258.00
2022-12-27T17:45:35.963Z,102265.94
2022-12-27T17:48:28.979Z,102261.44
2022-12-27T17:51:21.385Z,102252.72
2022-12-27T17:54:41.440Z,102253.03
2022-12-27T17:57:47.160Z,102241.41
2022-12-27T18:00:40.310Z,102243.78
2022-12-27T18:03:32.853Z,102231.47
2022-12-27T18:06:20.958Z,102239.16
2022-12-27T18:09:11.638Z,102231.25
2022-12-27T18:12:01.815Z,102230.31
2022-12-27T18:14:56.476Z,102222.81
2022-12-27T18:17:47.896Z,102211.06
2022-12-27T18:20:38.571Z,102208.66
2022-12-27T18:23:27.640Z,102199.63
2022-12-27T18:26:16.485Z,102206.03
2022-12-27T18:29:06.890Z,102199.94
2022-12-27T18:31:58.510Z,102194.78
2022-12-27T18:34:52.322Z,102189.25
2022-12-27T18:37:40.570Z,102185.88
2022-12-27T18:40:28.661Z,102190.41
2022-12-27T18:43:16.639Z,102179.31
2022-12-27T18:46:06.464Z,102181.72
2022-12-27T18:48:54.684Z,102181.69
2022-12-27T18:51:42.846Z,102174.59
2022-12-27T18:54:36.403Z,102160.41
2022-12-27T18:57:35.254Z,102173.75
2022-12-27T19:00:26.424Z,102165.50
2022-12-27T19:03:17.720Z,102158.53
2022-12-27T19:06:08.948Z,102155.16
2022-12-27T19:08:56.982Z,102146.25
2022-12-27T19:11:52.557Z,102147.06
2022-12-27T19:14:44.278Z,102146.56
2022-12-27T19:17:33.352Z,102128.97
2022-12-27T19:20:25.511Z,102122.72
2022-12-27T19:23:28.927Z,102114.53
2022-12-27T19:26:26.793Z,102118.91
2022-12-27T19:29:16.793Z,102109.25
2022-12-27T19:32:08.511Z,102110.88
2022-12-27T19:34:59.238Z,102094.31
2022-12-27T19:37:48.598Z,102098.19
2022-12-27T19:40:36.597Z,102099.66
2022-12-27T19:43:26.957Z,102083.06
2022-12-27T19:46:15.635Z,102073.56
2022-12-27T19:52:16.723Z,102058.28
2022-12-27T19:55:09.403Z,102051.19
2022-12-27T19:57:57.614Z,102046.69
2022-12-27T20:00:45.606Z,102030.88
2022-12-27T20:03:33.756Z,102021.84
2022-12-27T20:06:26.684Z,102022.50
2022-12-27T20:09:18.493Z,102016.38
2022-12-27T20:12:09.458Z,102015.72
2022-12-27T20:14:57.501Z,102009.13
2022-12-27T20:17:45.480Z,101999.63
2022-12-27T20:20:33.438Z,101998.50
2022-12-27T20:23:21.669Z,101985.94
2022-12-27T20:26:10.073Z,101991.41
2022-12-27T20:28:59.787Z,101981.59
2022-12-27T20:31:49.990Z,101988.69
2022-12-27T20:34:38.054Z,101985.47
2022-12-27T20:37:26.084Z,101969.19
2022-12-27T20:40:14.103Z,101974.81
2022-12-27T20:43:02.014Z,101968.22
2022-12-27T20:45:51.420Z,101976.13
2022-12-27T20:48:40.454Z,101980.47
2022-12-27T20:51:31.580Z,101976.28
2022-12-27T20:54:19.522Z,101967.41
2022-12-27T20:57:07.563Z,101957.75
2022-12-27T20:59:55.526Z,101950.81
2022-12-27T21:02:45.083Z,101948.22
2022-12-27T21:05:33.138Z,101952.94
2022-12-27T21:08:21.067Z,101941.16
2022-12-27T21:11:10.658Z,101939.25
2022-12-27T21:13:59.058Z,101937.13
2022-12-27T21:16:47.591Z,101936.50
2022-12-27T21:19:37.034Z,101932.31
2022-12-27T21:22:24.943Z,101922.81
2022-12-27T21:25:12.916Z,101922.63
2022-12-27T21:28:00.855Z,101927.81
2022-12-27T21:30:56.515Z,101928.44
2022-12-27T21:33:44.928Z,101929.22
2022-12-27T21:36:34.784Z,101924.22
2022-12-27T21:39:24.266Z,101921.31
2022-12-27T21:42:12.362Z,101931.13
2022-12-27T21:45:00.313Z,101939.16
2022-12-27T21:47:48.589Z,101942.38
2022-12-27T21:50:37.492Z,101935.25
2022-12-27T21:53:26.839Z,101938.16
2022-12-27T21:56:16.777Z,101931.84
2022-12-27T21:59:10.780Z,101918.97
2022-12-27T22:01:58.895Z,101915.41
2022-12-27T22:04:47.301Z,101910.09
2022-12-27T22:07:35.281Z,101916.38
2022-12-27T22:10:25.461Z,101906.22
2022-12-27T22:13:13.397Z,101910.25
2022-12-27T22:16:03.844Z,101885.75
2022-12-27T22:18:52.452Z,101871.59
2022-12-27T22:21:41.612Z,101871.59
2022-12-27T22:24:29.590Z,101859.53
2022-12-27T22:27:18.824Z,101845.84
2022-12-27T22:30:08.198Z,101839.91
2022-12-27T22:32:56.226Z,101829.59
2022-12-27T22:35:44.588Z,101823.66
2022-12-27T22:38:33.713Z,101837.31
2022-12-27T22:41:25.819Z,101836.19
2022-12-27T22:44:16.118Z,101822.38
2022-12-27T22:47:25.689Z,101832.19
2022-12-27T22:50:11.938Z,101813.19
2022-12-27T22:52:59.941Z,101807.56
2022-12-27T22:55:48.869Z,101814.94
2022-12-27T22:58:36.799Z,101802.88
2022-12-27T23:01:27.758Z,101793.69
2022-12-27T23:04:16.100Z,101788.88
2022-12-27T23:07:04.102Z,101771.16
2022-12-27T23:09:52.079Z,101773.09
2022-12-27T23:12:40.082Z,101763.41
2022-12-27T23:15:28.056Z,101761.97
2022-12-27T23:18:17.352Z,101756.66
2022-12-27T23:21:20.868Z,101747.97
2022-12-27T23:24:12.415Z,101751.34
2022-12-27T23:27:00.549Z,101745.22
2022-12-27T23:29:48.517Z,101741.69
2022-12-27T23:32:36.470Z,101717.34
2022-12-27T23:35:25.779Z,101718.19
2022-12-27T23:38:13.674Z,101705.59
2022-12-27T23:41:03.302Z,101690.13
2022-12-27T23:43:54.989Z,101684.00
2022-12-27T23:46:43.479Z,101674.97
2022-12-27T23:49:31.424Z,101671.63
2022-12-27T23:52:20.856Z,101658.56
2022-12-27T23:55:09.561Z,101658.88
2022-12-27T23:57:57.543Z,101653.56
